Terminal Aerodrome Forecast
Issued by NWS

Home | Current Version | Previous Version | Text Only | Print | Product List | Glossary On
Versions: 1 2 3 4 5 6 7 8 9 10 11 12 13 14 15 16
000
FTUS41 KBTV 222320
TAFMPV
TAF
KMPV 222320Z 2300/2324 VRB02KT 6SM BR BKN020 OVC035
      TEMPO 2300/2302 5SM -SN BR
     FM230500 15005KT 5SM -FZDZSN BR OVC020
     FM230800 17003KT 5SM -SNRA BR OVC018
     FM231600 17008KT 5SM -RA BR SCT015 OVC030=

USA.gov is the U.S. government's official web portal to all federal, state and local government web resources and services.